OMD122 KLAX-KGYR
Flight info
| Callsign | OMD122 |
|---|---|
| Flight time | 1h 2m |
| Altitude | 39000 |
| Route | DOTSS2 CNERY BLH BXK |
| Aircraft | A21N/M-SDE2E3FGHIRWXY/LB1 |
Departure
| Time | 2026-05-05 23:18 |
|---|---|
| Airport | Los Angeles International Airport (KLAX) |
Arrival
| Time | 2026-05-06 00:20 |
|---|---|
| Airport | Phoenix Goodyear Airport (KGYR) |
| Time | Latitude | Longitude | Altitude | Speed | Heading |
|---|---|---|---|---|---|
| 2026-05-05 22:53 | 33.93953 | -118.41933 | 129 ft | 0 kts | 84° |
| 2026-05-05 23:03 | 33.93953 | -118.41935 | 129 ft | 1 kts | 84° |
| 2026-05-05 23:03 | 33.93951 | -118.41953 | 130 ft | 2 kts | 83° |
| 2026-05-05 23:03 | 33.93950 | -118.41974 | 122 ft | 3 kts | 109° |
| 2026-05-05 23:04 | 33.93959 | -118.41991 | 122 ft | 3 kts | 156° |
| 2026-05-05 23:04 | 33.93977 | -118.41997 | 123 ft | 2 kts | 171° |
| 2026-05-05 23:04 | 33.93985 | -118.41999 | 122 ft | 0 kts | 172° |
| 2026-05-05 23:07 | 33.93939 | -118.41991 | 123 ft | 13 kts | 172° |
| 2026-05-05 23:07 | 33.93865 | -118.41980 | 126 ft | 14 kts | 174° |
| 2026-05-05 23:08 | 33.93818 | -118.41974 | 126 ft | 11 kts | 174° |
| 2026-05-05 23:08 | 33.93768 | -118.42018 | 129 ft | 9 kts | 240° |
| 2026-05-05 23:08 | 33.93698 | -118.42036 | 127 ft | 13 kts | 156° |
| 2026-05-05 23:09 | 33.93681 | -118.41939 | 125 ft | 17 kts | 83° |
| 2026-05-05 23:09 | 33.93698 | -118.41769 | 125 ft | 26 kts | 82° |
| 2026-05-05 23:09 | 33.93721 | -118.41537 | 125 ft | 23 kts | 83° |
| 2026-05-05 23:09 | 33.93743 | -118.41325 | 129 ft | 25 kts | 83° |
| 2026-05-05 23:10 | 33.93837 | -118.41257 | 126 ft | 20 kts | 356° |
| 2026-05-05 23:10 | 33.93995 | -118.41283 | 126 ft | 26 kts | 352° |
| 2026-05-05 23:10 | 33.94195 | -118.41312 | 127 ft | 32 kts | 353° |
| 2026-05-05 23:10 | 33.94434 | -118.41346 | 126 ft | 37 kts | 352° |
| 2026-05-05 23:11 | 33.94664 | -118.41369 | 127 ft | 25 kts | 24° |
| 2026-05-05 23:11 | 33.94699 | -118.41261 | 129 ft | 18 kts | 81° |
| 2026-05-05 23:11 | 33.94733 | -118.41051 | 127 ft | 28 kts | 80° |
| 2026-05-05 23:11 | 33.94762 | -118.40798 | 124 ft | 34 kts | 83° |
| 2026-05-05 23:12 | 33.94793 | -118.40496 | 129 ft | 39 kts | 82° |
| 2026-05-05 23:12 | 33.94834 | -118.40171 | 125 ft | 25 kts | 81° |
| 2026-05-05 23:12 | 33.94843 | -118.40093 | 129 ft | 0 kts | 82° |
| 2026-05-05 23:13 | 33.94844 | -118.40089 | 129 ft | 0 kts | 72° |
| 2026-05-05 23:13 | 33.94859 | -118.40078 | 128 ft | 5 kts | 15° |
| 2026-05-05 23:13 | 33.94884 | -118.40079 | 126 ft | 5 kts | 2° |
| 2026-05-05 23:14 | 33.94924 | -118.40020 | 127 ft | 12 kts | 80° |
| 2026-05-05 23:14 | 33.94947 | -118.39932 | 127 ft | 0 kts | 45° |
| 2026-05-05 23:16 | 33.94984 | -118.39910 | 126 ft | 19 kts | 11° |
| 2026-05-05 23:17 | 33.95049 | -118.39966 | 124 ft | 16 kts | 278° |
| 2026-05-05 23:17 | 33.95015 | -118.40165 | 125 ft | 50 kts | 262° |
| 2026-05-05 23:17 | 33.94951 | -118.40842 | 125 ft | 114 kts | 263° |
| 2026-05-05 23:17 | 33.94829 | -118.42026 | 211 ft | 160 kts | 263° |
| 2026-05-05 23:18 | 33.94741 | -118.43376 | 743 ft | 163 kts | 263° |
| 2026-05-05 23:18 | 33.94612 | -118.44722 | 1616 ft | 156 kts | 263° |
| 2026-05-05 23:18 | 33.94482 | -118.46004 | 2490 ft | 158 kts | 264° |
| 2026-05-05 23:18 | 33.94385 | -118.47454 | 2944 ft | 190 kts | 266° |
| 2026-05-05 23:19 | 33.94306 | -118.49184 | 3331 ft | 222 kts | 267° |
| 2026-05-05 23:19 | 33.94195 | -118.51118 | 3959 ft | 239 kts | 265° |
| 2026-05-05 23:19 | 33.94098 | -118.52456 | 4528 ft | 243 kts | 265° |
| 2026-05-05 23:19 | 33.93779 | -118.54457 | 5474 ft | 246 kts | 248° |
| 2026-05-05 23:20 | 33.92736 | -118.56121 | 6245 ft | 256 kts | 221° |
| 2026-05-05 23:20 | 33.91244 | -118.57339 | 6964 ft | 265 kts | 209° |
| 2026-05-05 23:20 | 33.88787 | -118.58009 | 7789 ft | 286 kts | 175° |
| 2026-05-05 23:20 | 33.87462 | -118.57780 | 8324 ft | 292 kts | 168° |
| 2026-05-05 23:21 | 33.85467 | -118.57215 | 9212 ft | 297 kts | 165° |
| 2026-05-05 23:21 | 33.83466 | -118.56574 | 10191 ft | 299 kts | 164° |
| 2026-05-05 23:21 | 33.81389 | -118.55894 | 10692 ft | 320 kts | 164° |
| 2026-05-05 23:21 | 33.79155 | -118.55162 | 11012 ft | 344 kts | 164° |
| 2026-05-05 23:22 | 33.77583 | -118.54648 | 11243 ft | 359 kts | 165° |
| 2026-05-05 23:22 | 33.74304 | -118.53579 | 11980 ft | 377 kts | 165° |
| 2026-05-05 23:22 | 33.71825 | -118.52475 | 12759 ft | 382 kts | 150° |
| 2026-05-05 23:22 | 33.69755 | -118.50493 | 13623 ft | 385 kts | 130° |
| 2026-05-05 23:23 | 33.68355 | -118.47728 | 14223 ft | 393 kts | 112° |
| 2026-05-05 23:23 | 33.67395 | -118.44638 | 14987 ft | 395 kts | 108° |
| 2026-05-05 23:23 | 33.66518 | -118.41545 | 15910 ft | 395 kts | 108° |
| 2026-05-05 23:23 | 33.65630 | -118.38433 | 16591 ft | 402 kts | 108° |
| 2026-05-05 23:24 | 33.64776 | -118.35187 | 17347 ft | 404 kts | 102° |
| 2026-05-05 23:24 | 33.64435 | -118.31875 | 18035 ft | 406 kts | 91° |
| 2026-05-05 23:24 | 33.64403 | -118.28490 | 18762 ft | 407 kts | 88° |
| 2026-05-05 23:24 | 33.64422 | -118.25078 | 19378 ft | 411 kts | 88° |
| 2026-05-05 23:25 | 33.64442 | -118.21607 | 19948 ft | 416 kts | 88° |
| 2026-05-05 23:25 | 33.64454 | -118.18115 | 20732 ft | 419 kts | 88° |
| 2026-05-05 23:25 | 33.64460 | -118.14603 | 21381 ft | 423 kts | 88° |
| 2026-05-05 23:25 | 33.64463 | -118.11053 | 21964 ft | 427 kts | 89° |
| 2026-05-05 23:26 | 33.64463 | -118.07519 | 22566 ft | 430 kts | 88° |
| 2026-05-05 23:26 | 33.64461 | -118.03923 | 23134 ft | 433 kts | 89° |
| 2026-05-05 23:26 | 33.64458 | -118.00306 | 23785 ft | 433 kts | 89° |
| 2026-05-05 23:26 | 33.64452 | -117.96668 | 24192 ft | 438 kts | 89° |
| 2026-05-05 23:27 | 33.64446 | -117.92985 | 24525 ft | 444 kts | 89° |
| 2026-05-05 23:27 | 33.64439 | -117.89269 | 24833 ft | 450 kts | 89° |
| 2026-05-05 23:27 | 33.64430 | -117.85481 | 25159 ft | 455 kts | 89° |
| 2026-05-05 23:27 | 33.64361 | -117.81669 | 25596 ft | 457 kts | 93° |
| 2026-05-05 23:28 | 33.63931 | -117.77882 | 26002 ft | 461 kts | 102° |
| 2026-05-05 23:28 | 33.63120 | -117.74122 | 26298 ft | 467 kts | 106° |
| 2026-05-05 23:28 | 33.62200 | -117.70381 | 26732 ft | 468 kts | 106° |
| 2026-05-05 23:28 | 33.61262 | -117.66627 | 27122 ft | 471 kts | 107° |
| 2026-05-05 23:29 | 33.60319 | -117.62847 | 27472 ft | 474 kts | 107° |
| 2026-05-05 23:29 | 33.59385 | -117.59090 | 27795 ft | 477 kts | 107° |
| 2026-05-05 23:29 | 33.58433 | -117.55257 | 28139 ft | 480 kts | 107° |
| 2026-05-05 23:29 | 33.57481 | -117.51421 | 28610 ft | 480 kts | 107° |
| 2026-05-05 23:30 | 33.56529 | -117.47586 | 29076 ft | 480 kts | 107° |
| 2026-05-05 23:30 | 33.55576 | -117.43751 | 29499 ft | 481 kts | 107° |
| 2026-05-05 23:30 | 33.54617 | -117.39900 | 29913 ft | 481 kts | 107° |
| 2026-05-05 23:30 | 33.53657 | -117.36044 | 30160 ft | 485 kts | 108° |
| 2026-05-05 23:31 | 33.51698 | -117.28202 | 30522 ft | 492 kts | 108° |
| 2026-05-05 23:31 | 33.50831 | -117.24231 | 30888 ft | 492 kts | 101° |
| 2026-05-05 23:31 | 33.50440 | -117.20164 | 31012 ft | 492 kts | 93° |
| 2026-05-05 23:32 | 33.50299 | -117.11954 | 31019 ft | 492 kts | 91° |
| 2026-05-05 23:32 | 33.50213 | -117.03802 | 31014 ft | 492 kts | 91° |
| 2026-05-05 23:33 | 33.50105 | -116.95600 | 31007 ft | 492 kts | 91° |
| 2026-05-05 23:33 | 33.49985 | -116.87399 | 31007 ft | 492 kts | 91° |
| 2026-05-05 23:34 | 33.49857 | -116.79177 | 30990 ft | 495 kts | 92° |
| 2026-05-05 23:34 | 33.49723 | -116.70920 | 30980 ft | 496 kts | 92° |
| 2026-05-05 23:35 | 33.49583 | -116.62641 | 30984 ft | 496 kts | 92° |
| 2026-05-05 23:35 | 33.49438 | -116.54431 | 30965 ft | 498 kts | 92° |
| 2026-05-05 23:36 | 33.49284 | -116.46071 | 30938 ft | 502 kts | 92° |
| 2026-05-05 23:36 | 33.49146 | -116.37706 | 30931 ft | 502 kts | 92° |
| 2026-05-05 23:37 | 33.49025 | -116.29345 | 30933 ft | 502 kts | 92° |
| 2026-05-05 23:37 | 33.48896 | -116.20974 | 30886 ft | 503 kts | 93° |
| 2026-05-05 23:38 | 33.48771 | -116.12595 | 30885 ft | 504 kts | 90° |
| 2026-05-05 23:38 | 33.48958 | -116.04192 | 30859 ft | 504 kts | 84° |
| 2026-05-05 23:39 | 33.49663 | -116.00115 | 30880 ft | 506 kts | 73° |
| 2026-05-05 23:39 | 33.50756 | -115.96057 | 30883 ft | 506 kts | 71° |
| 2026-05-05 23:39 | 33.53078 | -115.88122 | 30883 ft | 508 kts | 71° |
| 2026-05-05 23:40 | 33.55425 | -115.80113 | 30887 ft | 509 kts | 71° |
| 2026-05-05 23:40 | 33.57762 | -115.72090 | 30892 ft | 509 kts | 71° |
| 2026-05-05 23:41 | 33.60088 | -115.64078 | 30884 ft | 509 kts | 71° |
| 2026-05-05 23:41 | 33.61632 | -115.55863 | 30886 ft | 507 kts | 90° |
| 2026-05-05 23:42 | 33.61663 | -115.47413 | 30884 ft | 507 kts | 94° |
| 2026-05-05 23:42 | 33.61401 | -115.38967 | 30887 ft | 507 kts | 95° |
| 2026-05-05 23:43 | 33.61124 | -115.30516 | 30882 ft | 507 kts | 95° |
| 2026-05-05 23:43 | 33.60882 | -115.22035 | 30885 ft | 509 kts | 95° |
| 2026-05-05 23:44 | 33.60657 | -115.13550 | 30878 ft | 509 kts | 95° |
| 2026-05-05 23:44 | 33.60432 | -115.05060 | 30876 ft | 509 kts | 95° |
| 2026-05-05 23:45 | 33.60317 | -115.00819 | 30730 ft | 509 kts | 95° |
| 2026-05-05 23:45 | 33.60199 | -114.96568 | 30466 ft | 513 kts | 96° |
| 2026-05-05 23:45 | 33.60075 | -114.92256 | 30232 ft | 519 kts | 96° |
| 2026-05-05 23:45 | 33.59950 | -114.87916 | 29998 ft | 521 kts | 96° |
| 2026-05-05 23:46 | 33.59824 | -114.83563 | 29720 ft | 521 kts | 96° |
| 2026-05-05 23:46 | 33.59698 | -114.79228 | 29435 ft | 520 kts | 96° |
| 2026-05-05 23:46 | 33.59553 | -114.74960 | 29151 ft | 518 kts | 97° |
| 2026-05-05 23:46 | 33.59323 | -114.70664 | 28879 ft | 515 kts | 98° |
| 2026-05-05 23:47 | 33.59042 | -114.66392 | 28603 ft | 513 kts | 98° |
| 2026-05-05 23:47 | 33.58739 | -114.62132 | 28321 ft | 511 kts | 98° |
| 2026-05-05 23:47 | 33.58432 | -114.57897 | 28060 ft | 509 kts | 98° |
| 2026-05-05 23:47 | 33.58130 | -114.53677 | 27802 ft | 505 kts | 98° |
| 2026-05-05 23:48 | 33.57836 | -114.49498 | 27534 ft | 501 kts | 98° |
| 2026-05-05 23:48 | 33.57548 | -114.45351 | 27267 ft | 497 kts | 97° |
| 2026-05-05 23:48 | 33.57265 | -114.41236 | 27006 ft | 493 kts | 97° |
| 2026-05-05 23:48 | 33.56985 | -114.37168 | 26741 ft | 489 kts | 97° |
| 2026-05-05 23:49 | 33.56706 | -114.33118 | 26480 ft | 485 kts | 97° |
| 2026-05-05 23:49 | 33.56469 | -114.29081 | 26245 ft | 484 kts | 92° |
| 2026-05-05 23:49 | 33.56819 | -114.25094 | 25951 ft | 482 kts | 77° |
| 2026-05-05 23:49 | 33.57780 | -114.21263 | 25611 ft | 477 kts | 71° |
| 2026-05-05 23:50 | 33.58882 | -114.17525 | 25268 ft | 473 kts | 70° |
| 2026-05-05 23:50 | 33.59989 | -114.13826 | 24924 ft | 467 kts | 70° |
| 2026-05-05 23:50 | 33.61060 | -114.10233 | 24593 ft | 461 kts | 70° |
| 2026-05-05 23:50 | 33.62141 | -114.06587 | 24260 ft | 455 kts | 70° |
| 2026-05-05 23:51 | 33.63178 | -114.03090 | 23942 ft | 451 kts | 70° |
| 2026-05-05 23:51 | 33.64227 | -113.99546 | 23624 ft | 448 kts | 70° |
| 2026-05-05 23:51 | 33.65210 | -113.96018 | 23284 ft | 445 kts | 74° |
| 2026-05-05 23:51 | 33.65914 | -113.92400 | 22905 ft | 441 kts | 79° |
| 2026-05-05 23:52 | 33.66452 | -113.88784 | 22531 ft | 439 kts | 80° |
| 2026-05-05 23:52 | 33.66966 | -113.85182 | 22160 ft | 436 kts | 80° |
| 2026-05-05 23:52 | 33.67475 | -113.81605 | 21797 ft | 434 kts | 80° |
| 2026-05-05 23:52 | 33.67810 | -113.79243 | 21548 ft | 433 kts | 80° |
| 2026-05-05 23:53 | 33.68482 | -113.74496 | 21079 ft | 430 kts | 80° |
| 2026-05-05 23:53 | 33.68984 | -113.70964 | 20727 ft | 427 kts | 80° |
| 2026-05-05 23:53 | 33.69483 | -113.67457 | 20378 ft | 425 kts | 80° |
| 2026-05-05 23:53 | 33.69981 | -113.63966 | 20055 ft | 422 kts | 80° |
| 2026-05-05 23:54 | 33.70475 | -113.60499 | 19955 ft | 422 kts | 80° |
| 2026-05-05 23:54 | 33.70971 | -113.57029 | 19946 ft | 421 kts | 80° |
| 2026-05-05 23:54 | 33.71468 | -113.53571 | 19943 ft | 420 kts | 80° |
| 2026-05-05 23:54 | 33.71966 | -113.50099 | 19936 ft | 420 kts | 80° |
| 2026-05-05 23:55 | 33.72455 | -113.46691 | 19841 ft | 419 kts | 80° |
| 2026-05-05 23:55 | 33.72947 | -113.43261 | 19172 ft | 415 kts | 80° |
| 2026-05-05 23:55 | 33.73433 | -113.39889 | 18474 ft | 413 kts | 80° |
| 2026-05-05 23:55 | 33.73959 | -113.36500 | 17753 ft | 410 kts | 77° |
| 2026-05-05 23:56 | 33.74724 | -113.33229 | 17067 ft | 405 kts | 71° |
| 2026-05-05 23:56 | 33.75639 | -113.30049 | 16519 ft | 397 kts | 70° |
| 2026-05-05 23:56 | 33.76542 | -113.26983 | 16263 ft | 383 kts | 70° |
| 2026-05-05 23:56 | 33.77414 | -113.24028 | 16045 ft | 368 kts | 70° |
| 2026-05-05 23:57 | 33.78252 | -113.21185 | 15832 ft | 354 kts | 70° |
| 2026-05-05 23:57 | 33.79051 | -113.18476 | 15592 ft | 343 kts | 70° |
| 2026-05-05 23:57 | 33.79842 | -113.15792 | 15269 ft | 335 kts | 70° |
| 2026-05-05 23:57 | 33.80611 | -113.13182 | 14954 ft | 328 kts | 70° |
| 2026-05-05 23:58 | 33.81368 | -113.10618 | 14627 ft | 321 kts | 70° |
| 2026-05-05 23:58 | 33.82106 | -113.08113 | 14311 ft | 315 kts | 70° |
| 2026-05-05 23:58 | 33.82828 | -113.05655 | 14006 ft | 309 kts | 70° |
| 2026-05-05 23:58 | 33.83531 | -113.03263 | 13653 ft | 305 kts | 70° |
| 2026-05-05 23:59 | 33.84239 | -113.00855 | 13176 ft | 305 kts | 70° |
| 2026-05-05 23:59 | 33.84942 | -112.98462 | 12696 ft | 304 kts | 70° |
| 2026-05-05 23:59 | 33.85646 | -112.96065 | 12237 ft | 303 kts | 70° |
| 2026-05-05 23:59 | 33.86339 | -112.93706 | 11713 ft | 305 kts | 70° |
| 2026-05-06 00:00 | 33.87056 | -112.91265 | 11080 ft | 310 kts | 70° |
| 2026-05-06 00:00 | 33.87780 | -112.88800 | 10463 ft | 315 kts | 70° |
| 2026-05-06 00:00 | 33.88514 | -112.86300 | 9856 ft | 318 kts | 70° |
| 2026-05-06 00:00 | 33.89258 | -112.83778 | 9204 ft | 320 kts | 70° |
| 2026-05-06 00:01 | 33.89994 | -112.81273 | 8566 ft | 321 kts | 70° |
| 2026-05-06 00:01 | 33.90596 | -112.78695 | 7924 ft | 320 kts | 78° |
| 2026-05-06 00:01 | 33.91012 | -112.76095 | 7297 ft | 311 kts | 80° |
| 2026-05-06 00:01 | 33.91560 | -112.73635 | 6785 ft | 299 kts | 69° |
| 2026-05-06 00:02 | 33.92347 | -112.71401 | 6447 ft | 280 kts | 65° |
| 2026-05-06 00:02 | 33.93130 | -112.69342 | 6185 ft | 261 kts | 65° |
| 2026-05-06 00:02 | 33.94086 | -112.67614 | 5863 ft | 244 kts | 41° |
| 2026-05-06 00:02 | 33.95410 | -112.66372 | 5483 ft | 238 kts | 32° |
| 2026-05-06 00:03 | 33.96752 | -112.65308 | 5281 ft | 223 kts | 31° |
| 2026-05-06 00:03 | 33.97870 | -112.64138 | 5089 ft | 206 kts | 57° |
| 2026-05-06 00:03 | 33.98273 | -112.62575 | 4895 ft | 189 kts | 86° |
| 2026-05-06 00:03 | 33.98207 | -112.61042 | 4707 ft | 181 kts | 107° |
| 2026-05-06 00:04 | 33.97585 | -112.59797 | 4514 ft | 168 kts | 147° |
| 2026-05-06 00:04 | 33.96637 | -112.59140 | 4294 ft | 150 kts | 162° |
| 2026-05-06 00:04 | 33.95694 | -112.58689 | 4098 ft | 145 kts | 168° |
| 2026-05-06 00:04 | 33.94729 | -112.58274 | 4107 ft | 150 kts | 167° |
| 2026-05-06 00:05 | 33.92964 | -112.57058 | 4115 ft | 164 kts | 146° |
| 2026-05-06 00:05 | 33.92042 | -112.56059 | 4295 ft | 189 kts | 143° |
| 2026-05-06 00:05 | 33.91022 | -112.54883 | 4452 ft | 212 kts | 140° |
| 2026-05-06 00:06 | 33.89975 | -112.53561 | 4682 ft | 224 kts | 136° |
| 2026-05-06 00:06 | 33.89287 | -112.52608 | 4828 ft | 230 kts | 133° |
| 2026-05-06 00:06 | 33.88050 | -112.50651 | 4957 ft | 204 kts | 127° |
| 2026-05-06 00:06 | 33.87600 | -112.49695 | 4948 ft | 184 kts | 121° |
| 2026-05-06 00:07 | 33.86921 | -112.47988 | 4947 ft | 162 kts | 120° |
| 2026-05-06 00:07 | 33.86614 | -112.47180 | 4949 ft | 160 kts | 120° |
| 2026-05-06 00:07 | 33.86160 | -112.45958 | 4942 ft | 160 kts | 120° |
| 2026-05-06 00:07 | 33.85648 | -112.44783 | 4949 ft | 156 kts | 127° |
| 2026-05-06 00:08 | 33.85076 | -112.43683 | 4940 ft | 154 kts | 130° |
| 2026-05-06 00:08 | 33.84510 | -112.42591 | 4943 ft | 154 kts | 130° |
| 2026-05-06 00:08 | 33.83933 | -112.41507 | 4944 ft | 154 kts | 130° |
| 2026-05-06 00:08 | 33.83353 | -112.40418 | 4940 ft | 154 kts | 132° |
| 2026-05-06 00:09 | 33.82617 | -112.39536 | 4940 ft | 146 kts | 155° |
| 2026-05-06 00:09 | 33.81718 | -112.39068 | 4949 ft | 139 kts | 171° |
| 2026-05-06 00:09 | 33.80800 | -112.38762 | 4926 ft | 138 kts | 172° |
| 2026-05-06 00:09 | 33.79832 | -112.38477 | 4507 ft | 145 kts | 172° |
| 2026-05-06 00:10 | 33.78897 | -112.38208 | 4285 ft | 135 kts | 175° |
| 2026-05-06 00:10 | 33.77982 | -112.37954 | 4322 ft | 136 kts | 172° |
| 2026-05-06 00:10 | 33.77055 | -112.37703 | 4341 ft | 137 kts | 175° |
| 2026-05-06 00:10 | 33.76123 | -112.37454 | 4336 ft | 137 kts | 174° |
| 2026-05-06 00:11 | 33.75191 | -112.37205 | 4344 ft | 138 kts | 174° |
| 2026-05-06 00:11 | 33.74271 | -112.36961 | 4360 ft | 138 kts | 173° |
| 2026-05-06 00:11 | 33.73324 | -112.36709 | 4361 ft | 139 kts | 174° |
| 2026-05-06 00:11 | 33.72390 | -112.36463 | 4363 ft | 139 kts | 174° |
| 2026-05-06 00:12 | 33.71454 | -112.36214 | 4358 ft | 137 kts | 175° |
| 2026-05-06 00:12 | 33.70518 | -112.35967 | 4359 ft | 138 kts | 172° |
| 2026-05-06 00:12 | 33.69572 | -112.35718 | 4362 ft | 139 kts | 174° |
| 2026-05-06 00:12 | 33.68641 | -112.35473 | 4365 ft | 140 kts | 173° |
| 2026-05-06 00:13 | 33.67679 | -112.35219 | 4363 ft | 139 kts | 172° |
| 2026-05-06 00:13 | 33.66744 | -112.34973 | 4363 ft | 140 kts | 173° |
| 2026-05-06 00:13 | 33.65783 | -112.34724 | 4270 ft | 141 kts | 174° |
| 2026-05-06 00:13 | 33.64831 | -112.34453 | 4091 ft | 140 kts | 173° |
| 2026-05-06 00:14 | 33.63882 | -112.34172 | 4009 ft | 141 kts | 172° |
| 2026-05-06 00:14 | 33.62924 | -112.33885 | 3884 ft | 141 kts | 174° |
| 2026-05-06 00:14 | 33.61967 | -112.33599 | 3793 ft | 142 kts | 174° |
| 2026-05-06 00:14 | 33.61013 | -112.33321 | 3737 ft | 141 kts | 173° |
| 2026-05-06 00:15 | 33.60055 | -112.33045 | 3658 ft | 143 kts | 174° |
| 2026-05-06 00:15 | 33.59084 | -112.32769 | 3631 ft | 143 kts | 174° |
| 2026-05-06 00:15 | 33.58126 | -112.32499 | 3586 ft | 141 kts | 174° |
| 2026-05-06 00:15 | 33.57167 | -112.32234 | 3397 ft | 141 kts | 173° |
| 2026-05-06 00:16 | 33.56209 | -112.31990 | 3178 ft | 140 kts | 175° |
| 2026-05-06 00:16 | 33.55261 | -112.31764 | 3027 ft | 139 kts | 174° |
| 2026-05-06 00:16 | 33.54320 | -112.31498 | 2764 ft | 138 kts | 174° |
| 2026-05-06 00:16 | 33.53382 | -112.31217 | 2600 ft | 139 kts | 172° |
| 2026-05-06 00:17 | 33.52345 | -112.30905 | 2487 ft | 173 kts | 173° |
| 2026-05-06 00:17 | 33.51183 | -112.30561 | 2407 ft | 166 kts | 173° |
| 2026-05-06 00:17 | 33.50147 | -112.30550 | 2254 ft | 137 kts | 201° |
| 2026-05-06 00:17 | 33.49332 | -112.31044 | 2059 ft | 125 kts | 216° |
| 2026-05-06 00:18 | 33.48644 | -112.31649 | 1927 ft | 125 kts | 220° |
| 2026-05-06 00:18 | 33.47955 | -112.32310 | 1840 ft | 130 kts | 219° |
| 2026-05-06 00:18 | 33.47230 | -112.32963 | 1652 ft | 130 kts | 218° |
| 2026-05-06 00:18 | 33.46510 | -112.33611 | 1487 ft | 129 kts | 219° |
| 2026-05-06 00:19 | 33.45811 | -112.34292 | 1408 ft | 130 kts | 220° |
| 2026-05-06 00:19 | 33.45113 | -112.34942 | 1337 ft | 124 kts | 218° |
| 2026-05-06 00:19 | 33.44443 | -112.35570 | 1235 ft | 123 kts | 220° |
| 2026-05-06 00:19 | 33.43754 | -112.36206 | 1146 ft | 125 kts | 219° |
| 2026-05-06 00:20 | 33.43076 | -112.36841 | 995 ft | 122 kts | 219° |
| 2026-05-06 00:20 | 33.42485 | -112.37395 | 980 ft | 80 kts | 218° |
| 2026-05-06 00:20 | 33.42275 | -112.37584 | 965 ft | 4 kts | 218° |
| 2026-05-06 00:20 | 33.42123 | -112.37659 | 966 ft | 29 kts | 178° |
| 2026-05-06 00:21 | 33.42070 | -112.37604 | 963 ft | 14 kts | 31° |
| 2026-05-06 00:21 | 33.42223 | -112.37470 | 966 ft | 42 kts | 38° |
| 2026-05-06 00:21 | 33.42510 | -112.37202 | 982 ft | 52 kts | 37° |
| 2026-05-06 00:21 | 33.42754 | -112.36975 | 964 ft | 30 kts | 38° |
| 2026-05-06 00:22 | 33.42764 | -112.36851 | 966 ft | 16 kts | 122° |
| 2026-05-06 00:22 | 33.42699 | -112.36741 | 966 ft | 15 kts | 128° |
| 2026-05-06 00:22 | 33.42664 | -112.36723 | 964 ft | 4 kts | 188° |
| 2026-05-06 00:22 | 33.42646 | -112.36737 | 964 ft | 0 kts | 220° |